sensor_id;sensor_type;location;lat;lon;timestamp;pressure;altitude;pressure_sealevel;temperature;humidity
75051;BME280;63628;47.656;11.310;2023-08-31T00:00:09;94329.13;;;15.64;69.37
75051;BME280;63628;47.656;11.310;2023-08-31T00:02:36;94337.88;;;15.74;69.05
75051;BME280;63628;47.656;11.310;2023-08-31T00:05:03;94337.09;;;15.69;68.92
75051;BME280;63628;47.656;11.310;2023-08-31T00:07:30;94334.72;;;15.67;68.95
75051;BME280;63628;47.656;11.310;2023-08-31T00:09:57;94334.94;;;15.76;68.49
75051;BME280;63628;47.656;11.310;2023-08-31T00:12:24;94346.72;;;15.70;68.75
75051;BME280;63628;47.656;11.310;2023-08-31T00:14:53;94348.31;;;15.71;69.04
75051;BME280;63628;47.656;11.310;2023-08-31T00:17:20;94349.88;;;15.77;68.45
75051;BME280;63628;47.656;11.310;2023-08-31T00:19:48;94342.94;;;15.76;68.90
75051;BME280;63628;47.656;11.310;2023-08-31T00:22:14;94348.25;;;15.81;68.06
75051;BME280;63628;47.656;11.310;2023-08-31T00:24:41;94348.81;;;15.73;68.41
75051;BME280;63628;47.656;11.310;2023-08-31T00:27:08;94343.81;;;15.61;68.72
75051;BME280;63628;47.656;11.310;2023-08-31T00:29:36;94355.75;;;15.74;68.67
75051;BME280;63628;47.656;11.310;2023-08-31T00:32:06;94361.63;;;15.71;68.72
75051;BME280;63628;47.656;11.310;2023-08-31T00:34:33;94357.94;;;15.62;69.12
75051;BME280;63628;47.656;11.310;2023-08-31T00:37:00;94362.47;;;15.66;68.63
75051;BME280;63628;47.656;11.310;2023-08-31T00:39:26;94361.66;;;15.66;68.57
75051;BME280;63628;47.656;11.310;2023-08-31T00:41:54;94367.28;;;15.64;68.72
75051;BME280;63628;47.656;11.310;2023-08-31T00:44:21;94363.25;;;15.72;68.44
75051;BME280;63628;47.656;11.310;2023-08-31T00:46:48;94368.59;;;15.57;69.11
75051;BME280;63628;47.656;11.310;2023-08-31T00:49:17;94358.72;;;15.67;68.84
75051;BME280;63628;47.656;11.310;2023-08-31T00:51:45;94370.22;;;15.58;69.05
75051;BME280;63628;47.656;11.310;2023-08-31T00:54:17;94360.84;;;15.55;69.33
75051;BME280;63628;47.656;11.310;2023-08-31T00:56:44;94373.16;;;15.61;68.80
75051;BME280;63628;47.656;11.310;2023-08-31T00:59:11;94368.34;;;15.58;68.84
75051;BME280;63628;47.656;11.310;2023-08-31T01:04:20;94377.66;;;15.55;69.29
75051;BME280;63628;47.656;11.310;2023-08-31T01:06:54;94384.63;;;15.51;69.50
75051;BME280;63628;47.656;11.310;2023-08-31T01:09:31;94374.75;;;15.47;67.39
75051;BME280;63628;47.656;11.310;2023-08-31T01:12:05;94379.03;;;15.48;69.31
75051;BME280;63628;47.656;11.310;2023-08-31T01:14:32;94376.63;;;15.62;68.44
75051;BME280;63628;47.656;11.310;2023-08-31T01:17:02;94376.88;;;15.55;69.00
75051;BME280;63628;47.656;11.310;2023-08-31T01:19:43;94381.66;;;15.53;69.29
75051;BME280;63628;47.656;11.310;2023-08-31T01:22:14;94378.75;;;15.60;68.34
75051;BME280;63628;47.656;11.310;2023-08-31T01:24:45;94378.78;;;15.44;69.39
75051;BME280;63628;47.656;11.310;2023-08-31T01:27:12;94385.13;;;15.53;68.85
75051;BME280;63628;47.656;11.310;2023-08-31T01:29:39;94372.88;;;15.58;68.66
75051;BME280;63628;47.656;11.310;2023-08-31T01:32:06;94380.59;;;15.54;68.92
75051;BME280;63628;47.656;11.310;2023-08-31T01:34:33;94373.41;;;15.49;69.06
75051;BME280;63628;47.656;11.310;2023-08-31T01:37:07;94382.22;;;15.50;66.90
75051;BME280;63628;47.656;11.310;2023-08-31T01:39:41;94378.13;;;14.37;72.77
75051;BME280;63628;47.656;11.310;2023-08-31T01:42:13;94381.50;;;15.24;70.14
75051;BME280;63628;47.656;11.310;2023-08-31T01:44:43;94374.53;;;15.38;69.08
75051;BME280;63628;47.656;11.310;2023-08-31T01:47:12;94371.31;;;15.41;69.31
75051;BME280;63628;47.656;11.310;2023-08-31T01:49:40;94380.34;;;15.50;68.38
75051;BME280;63628;47.656;11.310;2023-08-31T01:52:06;94376.34;;;15.53;68.08
75051;BME280;63628;47.656;11.310;2023-08-31T01:54:33;94383.00;;;15.55;68.20
75051;BME280;63628;47.656;11.310;2023-08-31T01:57:00;94385.44;;;15.42;69.21
75051;BME280;63628;47.656;11.310;2023-08-31T01:59:30;94382.75;;;15.47;68.51
75051;BME280;63628;47.656;11.310;2023-08-31T02:01:57;94390.00;;;15.36;68.89
75051;BME280;63628;47.656;11.310;2023-08-31T02:04:24;94390.25;;;15.40;69.02
75051;BME280;63628;47.656;11.310;2023-08-31T02:06:51;94383.84;;;15.46;68.73
75051;BME280;63628;47.656;11.310;2023-08-31T02:09:17;94385.47;;;15.37;69.18
75051;BME280;63628;47.656;11.310;2023-08-31T02:11:44;94390.56;;;15.33;69.42
75051;BME280;63628;47.656;11.310;2023-08-31T02:14:13;94387.88;;;15.33;69.60
75051;BME280;63628;47.656;11.310;2023-08-31T02:16:41;94383.41;;;15.13;69.36
75051;BME280;63628;47.656;11.310;2023-08-31T02:19:08;94384.44;;;15.28;69.18
75051;BME280;63628;47.656;11.310;2023-08-31T02:21:35;94389.72;;;15.38;69.10
75051;BME280;63628;47.656;11.310;2023-08-31T02:24:02;94378.81;;;15.34;68.86
75051;BME280;63628;47.656;11.310;2023-08-31T02:26:29;94377.47;;;15.37;69.21
75051;BME280;63628;47.656;11.310;2023-08-31T02:28:56;94383.06;;;15.40;68.77
75051;BME280;63628;47.656;11.310;2023-08-31T02:31:22;94380.66;;;15.39;68.69
75051;BME280;63628;47.656;11.310;2023-08-31T02:33:51;94378.34;;;15.12;69.80
75051;BME280;63628;47.656;11.310;2023-08-31T02:36:19;94382.59;;;15.23;69.61
75051;BME280;63628;47.656;11.310;2023-08-31T02:38:46;94386.84;;;15.24;69.47
75051;BME280;63628;47.656;11.310;2023-08-31T02:41:13;94388.94;;;15.32;67.28
75051;BME280;63628;47.656;11.310;2023-08-31T02:43:40;94397.78;;;15.22;69.06
75051;BME280;63628;47.656;11.310;2023-08-31T02:46:06;94397.78;;;15.17;68.33
75051;BME280;63628;47.656;11.310;2023-08-31T02:48:33;94399.38;;;15.23;68.83
75051;BME280;63628;47.656;11.310;2023-08-31T02:51:01;94401.78;;;15.15;69.57
75051;BME280;63628;47.656;11.310;2023-08-31T02:53:29;94412.97;;;15.22;69.04
75051;BME280;63628;47.656;11.310;2023-08-31T02:55:56;94424.16;;;15.24;69.01
75051;BME280;63628;47.656;11.310;2023-08-31T02:58:23;94416.75;;;15.06;69.92
75051;BME280;63628;47.656;11.310;2023-08-31T03:00:49;94410.88;;;15.14;69.23
75051;BME280;63628;47.656;11.310;2023-08-31T03:03:16;94405.78;;;15.22;69.75
75051;BME280;63628;47.656;11.310;2023-08-31T03:05:43;94397.53;;;15.19;69.18
75051;BME280;63628;47.656;11.310;2023-08-31T03:08:11;94403.44;;;14.45;69.91
75051;BME280;63628;47.656;11.310;2023-08-31T03:10:38;94393.81;;;15.05;70.31
75051;BME280;63628;47.656;11.310;2023-08-31T03:13:05;94390.59;;;15.13;69.64
75051;BME280;63628;47.656;11.310;2023-08-31T03:15:32;94396.72;;;15.18;69.56
75051;BME280;63628;47.656;11.310;2023-08-31T03:18:00;94404.72;;;15.13;69.88
75051;BME280;63628;47.656;11.310;2023-08-31T03:20:27;94402.84;;;15.19;69.14
75051;BME280;63628;47.656;11.310;2023-08-31T03:22:54;94417.25;;;15.23;68.93
75051;BME280;63628;47.656;11.310;2023-08-31T03:25:22;94416.72;;;15.16;69.54
75051;BME280;63628;47.656;11.310;2023-08-31T03:27:48;94428.16;;;15.21;69.28
75051;BME280;63628;47.656;11.310;2023-08-31T03:30:15;94430.06;;;14.70;71.60
75051;BME280;63628;47.656;11.310;2023-08-31T03:32:42;94441.28;;;15.03;70.27
75051;BME280;63628;47.656;11.310;2023-08-31T03:35:09;94444.19;;;15.16;69.41
75051;BME280;63628;47.656;11.310;2023-08-31T03:37:36;94454.31;;;15.14;69.30
75051;BME280;63628;47.656;11.310;2023-08-31T03:40:03;94469.78;;;15.12;69.75
75051;BME280;63628;47.656;11.310;2023-08-31T03:42:34;94458.56;;;15.15;69.15
75051;BME280;63628;47.656;11.310;2023-08-31T03:45:00;94460.44;;;15.10;69.44
75051;BME280;63628;47.656;11.310;2023-08-31T03:47:27;94466.84;;;14.83;69.03
75051;BME280;63628;47.656;11.310;2023-08-31T03:49:54;94476.72;;;15.03;69.65
75051;BME280;63628;47.656;11.310;2023-08-31T03:52:21;94476.44;;;14.69;71.05
75051;BME280;63628;47.656;11.310;2023-08-31T03:54:50;94483.13;;;15.02;69.85
75051;BME280;63628;47.656;11.310;2023-08-31T03:57:17;94489.78;;;15.05;70.12
75051;BME280;63628;47.656;11.310;2023-08-31T03:59:45;94490.84;;;15.09;69.56
75051;BME280;63628;47.656;11.310;2023-08-31T04:02:12;94480.97;;;14.99;69.90
75051;BME280;63628;47.656;11.310;2023-08-31T04:04:39;94488.44;;;15.02;69.51
75051;BME280;63628;47.656;11.310;2023-08-31T04:07:06;94491.38;;;15.06;69.46
75051;BME280;63628;47.656;11.310;2023-08-31T04:09:33;94500.97;;;15.07;69.55
75051;BME280;63628;47.656;11.310;2023-08-31T04:12:00;94495.09;;;15.05;69.86
75051;BME280;63628;47.656;11.310;2023-08-31T04:14:26;94502.53;;;14.82;70.73
75051;BME280;63628;47.656;11.310;2023-08-31T04:16:55;94500.13;;;14.81;70.46
75051;BME280;63628;47.656;11.310;2023-08-31T04:19:22;94505.47;;;14.71;69.76
75051;BME280;63628;47.656;11.310;2023-08-31T04:21:49;94503.06;;;14.74;69.86
75051;BME280;63628;47.656;11.310;2023-08-31T04:24:15;94493.84;;;14.19;70.37
75051;BME280;63628;47.656;11.310;2023-08-31T04:26:43;94505.47;;;14.86;70.44
75051;BME280;63628;47.656;11.310;2023-08-31T04:29:10;94508.97;;;14.97;70.14
75051;BME280;63628;47.656;11.310;2023-08-31T04:31:37;94510.56;;;14.98;69.68
75051;BME280;63628;47.656;11.310;2023-08-31T04:34:06;94504.44;;;14.97;70.10
75051;BME280;63628;47.656;11.310;2023-08-31T04:36:33;94499.63;;;14.99;69.75
75051;BME280;63628;47.656;11.310;2023-08-31T04:39:00;94504.97;;;14.99;70.02
75051;BME280;63628;47.656;11.310;2023-08-31T04:41:27;94504.69;;;15.06;69.57
75051;BME280;63628;47.656;11.310;2023-08-31T04:43:53;94501.50;;;14.99;69.58
75051;BME280;63628;47.656;11.310;2023-08-31T04:46:20;94503.09;;;15.05;69.45
75051;BME280;63628;47.656;11.310;2023-08-31T04:48:47;94505.78;;;15.05;69.55
75051;BME280;63628;47.656;11.310;2023-08-31T04:51:31;94500.44;;;15.00;69.48
75051;BME280;63628;47.656;11.310;2023-08-31T04:53:59;94502.31;;;14.99;69.52
75051;BME280;63628;47.656;11.310;2023-08-31T04:56:30;94507.38;;;15.01;69.48
75051;BME280;63628;47.656;11.310;2023-08-31T04:58:56;94503.09;;;15.00;69.55
75051;BME280;63628;47.656;11.310;2023-08-31T05:01:23;94508.16;;;14.96;69.52
75051;BME280;63628;47.656;11.310;2023-08-31T05:03:50;94516.16;;;15.01;69.35
75051;BME280;63628;47.656;11.310;2023-08-31T05:06:16;94515.91;;;15.03;69.34
75051;BME280;63628;47.656;11.310;2023-08-31T05:08:44;94523.88;;;15.03;69.10
75051;BME280;63628;47.656;11.310;2023-08-31T05:11:11;94512.16;;;14.99;69.70
75051;BME280;63628;47.656;11.310;2023-08-31T05:13:38;94518.25;;;14.94;70.12
75051;BME280;63628;47.656;11.310;2023-08-31T05:16:04;94524.97;;;14.97;70.11
75051;BME280;63628;47.656;11.310;2023-08-31T05:18:31;94531.63;;;15.04;68.96
75051;BME280;63628;47.656;11.310;2023-08-31T05:20:58;94517.50;;;14.99;69.77
75051;BME280;63628;47.656;11.310;2023-08-31T05:23:25;94527.63;;;14.97;69.92
75051;BME280;63628;47.656;11.310;2023-08-31T05:25:53;94527.63;;;14.97;69.56
75051;BME280;63628;47.656;11.310;2023-08-31T05:28:19;94524.69;;;14.98;69.74
75051;BME280;63628;47.656;11.310;2023-08-31T05:30:48;94536.69;;;14.96;69.64
75051;BME280;63628;47.656;11.310;2023-08-31T05:33:15;94532.69;;;14.98;69.27
75051;BME280;63628;47.656;11.310;2023-08-31T05:35:42;94537.75;;;15.00;69.68
75051;BME280;63628;47.656;11.310;2023-08-31T05:38:09;94551.34;;;15.03;69.37
75051;BME280;63628;47.656;11.310;2023-08-31T05:40:35;94552.41;;;14.97;69.36
75051;BME280;63628;47.656;11.310;2023-08-31T05:43:04;94559.06;;;15.05;69.15
75051;BME280;63628;47.656;11.310;2023-08-31T05:45:32;94559.06;;;15.05;69.29
75051;BME280;63628;47.656;11.310;2023-08-31T05:47:59;94552.16;;;15.04;69.54
75051;BME280;63628;47.656;11.310;2023-08-31T05:50:26;94559.88;;;15.00;69.15
75051;BME280;63628;47.656;11.310;2023-08-31T05:52:53;94560.41;;;15.07;68.88
75051;BME280;63628;47.656;11.310;2023-08-31T05:55:20;94553.47;;;15.06;69.03
75051;BME280;63628;47.656;11.310;2023-08-31T05:57:46;94562.81;;;14.99;69.10
75051;BME280;63628;47.656;11.310;2023-08-31T06:00:15;94566.00;;;15.01;69.52
75051;BME280;63628;47.656;11.310;2023-08-31T06:02:42;94566.25;;;14.99;71.17
75051;BME280;63628;47.656;11.310;2023-08-31T06:05:11;94568.94;;;14.99;69.42
75051;BME280;63628;47.656;11.310;2023-08-31T06:07:43;94571.06;;;14.97;69.70
75051;BME280;63628;47.656;11.310;2023-08-31T06:10:09;94573.16;;;14.95;69.84
75051;BME280;63628;47.656;11.310;2023-08-31T06:12:37;94589.69;;;14.92;69.74
75051;BME280;63628;47.656;11.310;2023-08-31T06:15:04;94588.13;;;14.96;69.44
75051;BME280;63628;47.656;11.310;2023-08-31T06:17:32;94583.06;;;15.00;69.43
75051;BME280;63628;47.656;11.310;2023-08-31T06:20:01;94583.31;;;15.03;69.21
75051;BME280;63628;47.656;11.310;2023-08-31T06:22:28;94584.94;;;15.04;68.97
75051;BME280;63628;47.656;11.310;2023-08-31T06:24:55;94587.59;;;15.04;69.37
75051;BME280;63628;47.656;11.310;2023-08-31T06:27:21;94580.03;;;14.08;76.08
75051;BME280;63628;47.656;11.310;2023-08-31T06:29:48;94578.50;;;14.22;73.87
75051;BME280;63628;47.656;11.310;2023-08-31T06:32:16;94579.53;;;14.74;70.93
75051;BME280;63628;47.656;11.310;2023-08-31T06:34:44;94589.41;;;14.83;70.70
75051;BME280;63628;47.656;11.310;2023-08-31T06:37:10;94589.94;;;14.85;70.36
75051;BME280;63628;47.656;11.310;2023-08-31T06:39:37;94599.53;;;14.86;70.23
75051;BME280;63628;47.656;11.310;2023-08-31T06:42:04;94591.28;;;14.88;69.95
75051;BME280;63628;47.656;11.310;2023-08-31T06:44:31;94589.19;;;15.00;69.12
75051;BME280;63628;47.656;11.310;2023-08-31T06:46:58;94602.25;;;14.97;69.79
75051;BME280;63628;47.656;11.310;2023-08-31T06:49:24;94611.78;;;14.87;70.05
75051;BME280;63628;47.656;11.310;2023-08-31T06:51:53;94627.25;;;14.90;69.93
75051;BME280;63628;47.656;11.310;2023-08-31T06:54:20;94633.97;;;14.98;70.21
75051;BME280;63628;47.656;11.310;2023-08-31T06:56:47;94636.34;;;15.00;69.30
75051;BME280;63628;47.656;11.310;2023-08-31T06:59:13;94631.56;;;14.97;69.52
75051;BME280;63628;47.656;11.310;2023-08-31T07:01:40;94632.63;;;15.01;69.68
75051;BME280;63628;47.656;11.310;2023-08-31T07:04:07;94624.84;;;14.89;71.01
75051;BME280;63628;47.656;11.310;2023-08-31T07:06:35;94634.31;;;14.02;76.78
75051;BME280;63628;47.656;11.310;2023-08-31T07:09:03;94629.34;;;14.21;73.53
75051;BME280;63628;47.656;11.310;2023-08-31T07:11:32;94630.66;;;14.71;71.11
75051;BME280;63628;47.656;11.310;2023-08-31T07:13:59;94634.97;;;14.82;70.54
75051;BME280;63628;47.656;11.310;2023-08-31T07:16:26;94641.38;;;14.86;70.19
75051;BME280;63628;47.656;11.310;2023-08-31T07:18:53;94649.09;;;14.93;70.43
75051;BME280;63628;47.656;11.310;2023-08-31T07:21:19;94646.69;;;14.28;75.71
75051;BME280;63628;47.656;11.310;2023-08-31T07:23:46;94648.78;;;14.74;71.39
75051;BME280;63628;47.656;11.310;2023-08-31T07:26:14;94654.41;;;14.82;70.46
75051;BME280;63628;47.656;11.310;2023-08-31T07:28:42;94657.09;;;14.87;70.17
75051;BME280;63628;47.656;11.310;2023-08-31T07:31:09;94661.91;;;14.90;70.53
75051;BME280;63628;47.656;11.310;2023-08-31T07:33:37;94664.28;;;14.87;70.65
75051;BME280;63628;47.656;11.310;2023-08-31T07:36:05;94668.81;;;14.86;70.61
75051;BME280;63628;47.656;11.310;2023-08-31T07:38:33;94668.06;;;14.96;70.50
75051;BME280;63628;47.656;11.310;2023-08-31T07:41:00;94655.25;;;14.31;76.11
75051;BME280;63628;47.656;11.310;2023-08-31T07:43:28;94654.56;;;13.66;79.90
75051;BME280;63628;47.656;11.310;2023-08-31T07:45:56;94658.13;;;13.82;79.44
75051;BME280;63628;47.656;11.310;2023-08-31T07:48:23;94655.16;;;14.63;72.54
75051;BME280;63628;47.656;11.310;2023-08-31T07:50:50;94659.72;;;14.77;71.17
75051;BME280;63628;47.656;11.310;2023-08-31T07:53:16;94647.47;;;14.76;74.03
75051;BME280;63628;47.656;11.310;2023-08-31T07:55:51;94629.25;;;14.06;76.22
75051;BME280;63628;47.656;11.310;2023-08-31T07:58:18;94641.31;;;14.66;71.91
75051;BME280;63628;47.656;11.310;2023-08-31T08:00:46;94652.00;;;14.76;71.18
75051;BME280;63628;47.656;11.310;2023-08-31T08:03:13;94656.53;;;14.80;71.48
75051;BME280;63628;47.656;11.310;2023-08-31T08:05:40;94638.44;;;14.87;70.66
75051;BME280;63628;47.656;11.310;2023-08-31T08:08:07;94645.63;;;14.92;70.65
75051;BME280;63628;47.656;11.310;2023-08-31T08:10:34;94656.56;;;14.85;71.11
75051;BME280;63628;47.656;11.310;2023-08-31T08:13:01;94660.56;;;14.88;70.93
75051;BME280;63628;47.656;11.310;2023-08-31T08:15:28;94660.28;;;14.89;70.79
75051;BME280;63628;47.656;11.310;2023-08-31T08:17:56;94661.97;;;15.11;75.37
75051;BME280;63628;47.656;11.310;2023-08-31T08:20:23;94665.22;;;14.50;75.42
75051;BME280;63628;47.656;11.310;2023-08-31T08:22:50;94662.41;;;14.30;78.50
75051;BME280;63628;47.656;11.310;2023-08-31T08:25:19;94667.19;;;14.28;77.29
75051;BME280;63628;47.656;11.310;2023-08-31T08:27:45;94665.28;;;14.71;72.25
75051;BME280;63628;47.656;11.310;2023-08-31T08:30:12;94671.97;;;14.73;72.76
75051;BME280;63628;47.656;11.310;2023-08-31T08:32:39;94674.91;;;14.82;71.64
75051;BME280;63628;47.656;11.310;2023-08-31T08:35:08;94682.66;;;14.88;71.63
75051;BME280;63628;47.656;11.310;2023-08-31T08:37:35;94687.19;;;14.88;71.30
75051;BME280;63628;47.656;11.310;2023-08-31T08:40:02;94679.47;;;14.86;71.33
75051;BME280;63628;47.656;11.310;2023-08-31T08:42:30;94687.19;;;14.88;71.46
75051;BME280;63628;47.656;11.310;2023-08-31T08:45:02;94686.94;;;14.89;71.38
75051;BME280;63628;47.656;11.310;2023-08-31T08:47:30;94685.66;;;14.97;70.51
75051;BME280;63628;47.656;11.310;2023-08-31T08:49:59;94688.59;;;14.96;72.03
75051;BME280;63628;47.656;11.310;2023-08-31T08:52:28;94695.44;;;14.81;73.83
75051;BME280;63628;47.656;11.310;2023-08-31T08:54:56;94699.97;;;14.86;72.05
75051;BME280;63628;47.656;11.310;2023-08-31T08:57:24;94702.41;;;14.93;71.44
75051;BME280;63628;47.656;11.310;2023-08-31T08:59:50;94709.06;;;14.90;71.31
75051;BME280;63628;47.656;11.310;2023-08-31T09:02:17;94712.00;;;14.94;70.70
75051;BME280;63628;47.656;11.310;2023-08-31T09:04:44;94699.47;;;14.94;71.27
75051;BME280;63628;47.656;11.310;2023-08-31T09:07:10;94705.69;;;15.10;76.58
75051;BME280;63628;47.656;11.310;2023-08-31T09:09:49;94705.53;;;14.74;79.24
75051;BME280;63628;47.656;11.310;2023-08-31T09:12:21;94706.34;;;14.80;73.79
75051;BME280;63628;47.656;11.310;2023-08-31T09:14:58;94714.41;;;14.95;71.86
75051;BME280;63628;47.656;11.310;2023-08-31T09:17:25;94721.59;;;14.95;71.79
75051;BME280;63628;47.656;11.310;2023-08-31T09:19:59;94713.03;;;14.82;79.06
75051;BME280;63628;47.656;11.310;2023-08-31T09:22:27;94718.91;;;14.84;72.63
75051;BME280;63628;47.656;11.310;2023-08-31T09:24:55;94723.50;;;14.99;75.90
75051;BME280;63628;47.656;11.310;2023-08-31T09:27:22;94722.06;;;14.76;77.96
75051;BME280;63628;47.656;11.310;2023-08-31T09:29:54;94720.47;;;14.80;75.68
75051;BME280;63628;47.656;11.310;2023-08-31T09:32:20;94723.25;;;15.06;76.64
75051;BME280;63628;47.656;11.310;2023-08-31T09:34:48;94723.50;;;14.99;72.29
75051;BME280;63628;47.656;11.310;2023-08-31T09:37:19;94714.09;;;14.86;78.00
75051;BME280;63628;47.656;11.310;2023-08-31T09:39:46;94725.84;;;14.90;76.65
75051;BME280;63628;47.656;11.310;2023-08-31T09:42:14;94732.16;;;14.69;77.75
75051;BME280;63628;47.656;11.310;2023-08-31T09:44:43;94733.56;;;14.87;78.93
75051;BME280;63628;47.656;11.310;2023-08-31T09:47:10;94728.50;;;14.85;76.80
75051;BME280;63628;47.656;11.310;2023-08-31T09:49:38;94731.34;;;14.69;78.14
75051;BME280;63628;47.656;11.310;2023-08-31T09:52:07;94728.06;;;15.09;75.23
75051;BME280;63628;47.656;11.310;2023-08-31T09:54:35;94728.56;;;15.01;72.44
75051;BME280;63628;47.656;11.310;2023-08-31T09:57:03;94732.16;;;15.42;75.92
75051;BME280;63628;47.656;11.310;2023-08-31T09:59:32;94731.03;;;15.17;71.63
75051;BME280;63628;47.656;11.310;2023-08-31T10:02:00;94739.28;;;15.16;72.76
75051;BME280;63628;47.656;11.310;2023-08-31T10:04:29;94732.53;;;15.71;72.00
75051;BME280;63628;47.656;11.310;2023-08-31T10:06:57;94729.06;;;15.75;74.32
75051;BME280;63628;47.656;11.310;2023-08-31T10:09:24;94736.25;;;16.10;70.24
75051;BME280;63628;47.656;11.310;2023-08-31T10:11:52;94723.97;;;15.89;70.03
75051;BME280;63628;47.656;11.310;2023-08-31T10:14:20;94730.66;;;16.07;72.40
75051;BME280;63628;47.656;11.310;2023-08-31T10:16:49;94732.00;;;16.30;72.36
75051;BME280;63628;47.656;11.310;2023-08-31T10:19:19;94732.94;;;15.37;71.16
75051;BME280;63628;47.656;11.310;2023-08-31T10:21:46;94730.66;;;16.27;74.17
75051;BME280;63628;47.656;11.310;2023-08-31T10:24:12;94728.22;;;16.21;74.11
75051;BME280;63628;47.656;11.310;2023-08-31T10:26:39;94727.44;;;16.25;71.70
75051;BME280;63628;47.656;11.310;2023-08-31T10:29:06;94730.28;;;15.47;72.27
75051;BME280;63628;47.656;11.310;2023-08-31T10:31:33;94736.69;;;15.36;71.39
75051;BME280;63628;47.656;11.310;2023-08-31T10:34:03;94725.53;;;15.60;73.90
75051;BME280;63628;47.656;11.310;2023-08-31T10:36:38;94722.28;;;15.47;73.62
75051;BME280;63628;47.656;11.310;2023-08-31T10:39:07;94730.56;;;15.41;71.85
75051;BME280;63628;47.656;11.310;2023-08-31T10:41:37;94730.28;;;15.47;71.50
75051;BME280;63628;47.656;11.310;2023-08-31T10:44:19;94728.41;;;15.43;71.79
75051;BME280;63628;47.656;11.310;2023-08-31T10:46:46;94732.16;;;15.47;72.27
75051;BME280;63628;47.656;11.310;2023-08-31T10:49:16;94730.28;;;15.42;71.87
75051;BME280;63628;47.656;11.310;2023-08-31T10:51:45;94728.97;;;15.55;71.54
75051;BME280;63628;47.656;11.310;2023-08-31T10:54:13;94725.47;;;15.39;71.45
75051;BME280;63628;47.656;11.310;2023-08-31T10:57:01;94720.41;;;15.38;71.44
75051;BME280;63628;47.656;11.310;2023-08-31T10:59:46;94717.75;;;15.48;71.77
75051;BME280;63628;47.656;11.310;2023-08-31T11:02:30;94713.31;;;15.89;71.54
75051;BME280;63628;47.656;11.310;2023-08-31T11:05:02;94724.53;;;17.22;70.83
75051;BME280;63628;47.656;11.310;2023-08-31T11:07:32;94717.31;;;15.81;70.23
75051;BME280;63628;47.656;11.310;2023-08-31T11:10:11;94707.69;;;15.91;70.95
75051;BME280;63628;47.656;11.310;2023-08-31T11:12:39;94704.75;;;15.62;71.24
75051;BME280;63628;47.656;11.310;2023-08-31T11:15:07;94708.13;;;16.74;70.24
75051;BME280;63628;47.656;11.310;2023-08-31T11:17:34;94705.53;;;16.18;71.22
75051;BME280;63628;47.656;11.310;2023-08-31T11:20:03;94710.63;;;15.94;70.56
75051;BME280;63628;47.656;11.310;2023-08-31T11:22:32;94706.59;;;16.22;75.19
75051;BME280;63628;47.656;11.310;2023-08-31T11:25:01;94706.59;;;16.37;69.61
75051;BME280;63628;47.656;11.310;2023-08-31T11:27:29;94713.28;;;16.40;74.94
75051;BME280;63628;47.656;11.310;2023-08-31T11:29:56;94703.94;;;16.12;74.11
75051;BME280;63628;47.656;11.310;2023-08-31T11:32:25;94699.97;;;15.74;71.28
75051;BME280;63628;47.656;11.310;2023-08-31T11:34:51;94707.44;;;16.02;71.45
75051;BME280;63628;47.656;11.310;2023-08-31T11:37:19;94704.16;;;16.66;69.99
75051;BME280;63628;47.656;11.310;2023-08-31T11:39:50;94710.63;;;15.94;71.02
75051;BME280;63628;47.656;11.310;2023-08-31T11:42:19;94704.69;;;16.53;66.49
75051;BME280;63628;47.656;11.310;2023-08-31T11:44:46;94699.94;;;16.04;69.66
75051;BME280;63628;47.656;11.310;2023-08-31T11:47:14;94712.50;;;15.78;70.96
75051;BME280;63628;47.656;11.310;2023-08-31T11:49:42;94705.69;;;16.93;68.45
75051;BME280;63628;47.656;11.310;2023-08-31T11:52:09;94704.63;;;16.78;66.54
75051;BME280;63628;47.656;11.310;2023-08-31T11:54:38;94711.44;;;16.05;69.92
75051;BME280;63628;47.656;11.310;2023-08-31T11:57:06;94701.81;;;16.14;71.68
75051;BME280;63628;47.656;11.310;2023-08-31T11:59:34;94704.78;;;15.87;70.69
75051;BME280;63628;47.656;11.310;2023-08-31T12:02:01;94705.28;;;15.99;70.86
75051;BME280;63628;47.656;11.310;2023-08-31T12:04:28;94705.19;;;16.75;67.83
75051;BME280;63628;47.656;11.310;2023-08-31T12:07:01;94700.22;;;16.03;69.79
75051;BME280;63628;47.656;11.310;2023-08-31T12:09:28;94700.94;;;16.54;68.26
75051;BME280;63628;47.656;11.310;2023-08-31T12:11:56;94705.81;;;16.27;69.29
75051;BME280;63628;47.656;11.310;2023-08-31T12:14:24;94696.84;;;16.97;67.98
75051;BME280;63628;47.656;11.310;2023-08-31T12:16:52;94706.06;;;16.25;69.23
75051;BME280;63628;47.656;11.310;2023-08-31T12:19:26;94702.63;;;16.04;70.49
75051;BME280;63628;47.656;11.310;2023-08-31T12:21:54;94692.84;;;16.85;66.45
75051;BME280;63628;47.656;11.310;2023-08-31T12:24:20;94691.47;;;17.91;65.84
75051;BME280;63628;47.656;11.310;2023-08-31T12:26:48;94698.13;;;18.27;66.82
75051;BME280;63628;47.656;11.310;2023-08-31T12:29:16;94711.84;;;16.78;68.09
75051;BME280;63628;47.656;11.310;2023-08-31T12:31:43;94712.50;;;16.29;69.79
75051;BME280;63628;47.656;11.310;2023-08-31T12:34:10;94706.16;;;17.05;67.43
75051;BME280;63628;47.656;11.310;2023-08-31T12:36:37;94711.50;;;17.05;67.10
75051;BME280;63628;47.656;11.310;2023-08-31T12:39:04;94719.44;;;16.35;69.69
75051;BME280;63628;47.656;11.310;2023-08-31T12:41:33;94713.16;;;16.86;66.16
75051;BME280;63628;47.656;11.310;2023-08-31T12:44:00;94713.00;;;16.41;69.56
75051;BME280;63628;47.656;11.310;2023-08-31T12:46:28;94718.91;;;16.33;69.52
75051;BME280;63628;47.656;11.310;2023-08-31T12:48:55;94712.84;;;17.07;66.09
75051;BME280;63628;47.656;11.310;2023-08-31T12:51:21;94710.53;;;16.75;67.55
75051;BME280;63628;47.656;11.310;2023-08-31T12:53:48;94704.72;;;16.38;69.31
75051;BME280;63628;47.656;11.310;2023-08-31T12:56:15;94705.78;;;16.47;69.85